ACA12 KLAX-CYYC
Flight info
| Callsign | ACA12 |
|---|---|
| Flight time | 2h 43m |
| Altitude | 340 |
| Route | LADYJ4 CSTRO DCT FMG DCT EVANT/N0448F350 DCT KS21K/N0448F360 DCT ANTAK IGVEP7 |
| Aircraft | A321/M-V/N |
Departure
| Time | 2026-04-22 22:54 |
|---|---|
| Airport | Los Angeles International Airport (KLAX) |
Arrival
| Time | 2026-04-23 01:37 |
|---|---|
| Airport | Calgary International Airport (CYYC) |
| Time | Latitude | Longitude | Altitude | Speed | Heading |
|---|---|---|---|---|---|
| 2026-04-22 22:33 | 33.94746 | -118.40381 | 123 ft | 0 kts | 207° |
| 2026-04-22 22:48 | 33.94748 | -118.40380 | 123 ft | 3 kts | 207° |
| 2026-04-22 22:48 | 33.94764 | -118.40369 | 124 ft | 3 kts | 192° |
| 2026-04-22 22:48 | 33.94782 | -118.40370 | 122 ft | 3 kts | 169° |
| 2026-04-22 22:48 | 33.94800 | -118.40375 | 123 ft | 3 kts | 139° |
| 2026-04-22 22:49 | 33.94809 | -118.40389 | 122 ft | 0 kts | 90° |
| 2026-04-22 22:50 | 33.94809 | -118.40388 | 122 ft | 0 kts | 91° |
| 2026-04-22 22:51 | 33.94809 | -118.40366 | 124 ft | 10 kts | 91° |
| 2026-04-22 22:51 | 33.94861 | -118.40291 | 123 ft | 15 kts | 11° |
| 2026-04-22 22:51 | 33.94893 | -118.40196 | 123 ft | 13 kts | 62° |
| 2026-04-22 22:51 | 33.94921 | -118.40174 | 125 ft | 0 kts | 18° |
| 2026-04-22 22:52 | 33.94923 | -118.40174 | 125 ft | 2 kts | 18° |
| 2026-04-22 22:52 | 33.94979 | -118.40177 | 123 ft | 11 kts | 345° |
| 2026-04-22 22:52 | 33.95011 | -118.40247 | 122 ft | 10 kts | 267° |
| 2026-04-22 22:53 | 33.94995 | -118.40415 | 126 ft | 45 kts | 263° |
| 2026-04-22 22:53 | 33.94930 | -118.41038 | 125 ft | 103 kts | 263° |
| 2026-04-22 22:53 | 33.94824 | -118.42077 | 128 ft | 145 kts | 263° |
| 2026-04-22 22:53 | 33.94705 | -118.43337 | 542 ft | 152 kts | 262° |
| 2026-04-22 22:54 | 33.94585 | -118.44594 | 1176 ft | 154 kts | 263° |
| 2026-04-22 22:54 | 33.94458 | -118.45870 | 1773 ft | 154 kts | 263° |
| 2026-04-22 22:54 | 33.94348 | -118.47205 | 2042 ft | 169 kts | 266° |
| 2026-04-22 22:54 | 33.94289 | -118.48696 | 2169 ft | 189 kts | 267° |
| 2026-04-22 22:55 | 33.94237 | -118.50359 | 2310 ft | 208 kts | 268° |
| 2026-04-22 22:55 | 33.94144 | -118.52187 | 2460 ft | 228 kts | 265° |
| 2026-04-22 22:55 | 33.93826 | -118.56241 | 3440 ft | 252 kts | 264° |
| 2026-04-22 22:56 | 33.93652 | -118.58370 | 4046 ft | 258 kts | 265° |
| 2026-04-22 22:56 | 33.93489 | -118.60498 | 4788 ft | 260 kts | 269° |
| 2026-04-22 22:56 | 33.93796 | -118.62637 | 5446 ft | 261 kts | 295° |
| 2026-04-22 22:56 | 33.94866 | -118.64393 | 6137 ft | 264 kts | 320° |
| 2026-04-22 22:57 | 33.96412 | -118.65624 | 6791 ft | 269 kts | 327° |
| 2026-04-22 22:57 | 33.98028 | -118.66783 | 7454 ft | 270 kts | 333° |
| 2026-04-22 22:57 | 33.99813 | -118.67519 | 7867 ft | 273 kts | 347° |
| 2026-04-22 22:57 | 34.01720 | -118.67610 | 7971 ft | 276 kts | 1° |
| 2026-04-22 22:58 | 34.03631 | -118.67462 | 7993 ft | 275 kts | 0° |
| 2026-04-22 22:58 | 34.05541 | -118.67330 | 7986 ft | 275 kts | 360° |
| 2026-04-22 22:58 | 34.07426 | -118.67205 | 7978 ft | 276 kts | 1° |
| 2026-04-22 22:58 | 34.09336 | -118.66816 | 8133 ft | 282 kts | 7° |
| 2026-04-22 22:59 | 34.11259 | -118.66358 | 8865 ft | 282 kts | 6° |
| 2026-04-22 22:59 | 34.13205 | -118.65897 | 9473 ft | 288 kts | 7° |
| 2026-04-22 22:59 | 34.15185 | -118.65430 | 10077 ft | 292 kts | 6° |
| 2026-04-22 22:59 | 34.17235 | -118.64950 | 10297 ft | 311 kts | 5° |
| 2026-04-22 23:00 | 34.19432 | -118.64441 | 10416 ft | 332 kts | 6° |
| 2026-04-22 23:00 | 34.21763 | -118.63898 | 10544 ft | 351 kts | 6° |
| 2026-04-22 23:00 | 34.24181 | -118.63569 | 10889 ft | 356 kts | 356° |
| 2026-04-22 23:00 | 34.26647 | -118.63768 | 11358 ft | 355 kts | 346° |
| 2026-04-22 23:01 | 34.29081 | -118.64316 | 11940 ft | 357 kts | 344° |
| 2026-04-22 23:01 | 34.31528 | -118.64874 | 12554 ft | 359 kts | 344° |
| 2026-04-22 23:01 | 34.33999 | -118.65437 | 13126 ft | 363 kts | 344° |
| 2026-04-22 23:01 | 34.36489 | -118.66007 | 13673 ft | 366 kts | 343° |
| 2026-04-22 23:02 | 34.38998 | -118.66581 | 14250 ft | 367 kts | 343° |
| 2026-04-22 23:02 | 34.41515 | -118.67158 | 14781 ft | 370 kts | 343° |
| 2026-04-22 23:02 | 34.44025 | -118.67722 | 15278 ft | 373 kts | 343° |
| 2026-04-22 23:02 | 34.46595 | -118.68249 | 15783 ft | 376 kts | 344° |
| 2026-04-22 23:03 | 34.49190 | -118.68748 | 16284 ft | 379 kts | 345° |
| 2026-04-22 23:03 | 34.51806 | -118.69240 | 16776 ft | 382 kts | 345° |
| 2026-04-22 23:03 | 34.54438 | -118.69734 | 17272 ft | 384 kts | 345° |
| 2026-04-22 23:03 | 34.57091 | -118.70238 | 17773 ft | 387 kts | 345° |
| 2026-04-22 23:04 | 34.59758 | -118.70754 | 18238 ft | 390 kts | 344° |
| 2026-04-22 23:04 | 34.62442 | -118.71277 | 18718 ft | 392 kts | 344° |
| 2026-04-22 23:04 | 34.65138 | -118.71805 | 19152 ft | 393 kts | 343° |
| 2026-04-22 23:04 | 34.67815 | -118.72330 | 19529 ft | 396 kts | 343° |
| 2026-04-22 23:05 | 34.70522 | -118.72938 | 19921 ft | 394 kts | 338° |
| 2026-04-22 23:05 | 34.73092 | -118.74003 | 20288 ft | 388 kts | 329° |
| 2026-04-22 23:05 | 34.75463 | -118.75517 | 20651 ft | 385 kts | 323° |
| 2026-04-22 23:05 | 34.77802 | -118.77135 | 21046 ft | 387 kts | 323° |
| 2026-04-22 23:06 | 34.80149 | -118.78754 | 21443 ft | 389 kts | 323° |
| 2026-04-22 23:06 | 34.82511 | -118.80378 | 21834 ft | 391 kts | 323° |
| 2026-04-22 23:06 | 34.84887 | -118.82010 | 22220 ft | 394 kts | 323° |
| 2026-04-22 23:06 | 34.87247 | -118.83632 | 22622 ft | 395 kts | 323° |
| 2026-04-22 23:07 | 34.89647 | -118.85281 | 23021 ft | 397 kts | 323° |
| 2026-04-22 23:07 | 34.92058 | -118.86938 | 23283 ft | 400 kts | 323° |
| 2026-04-22 23:07 | 34.94484 | -118.88609 | 23687 ft | 401 kts | 322° |
| 2026-04-22 23:07 | 34.96918 | -118.90289 | 24006 ft | 402 kts | 323° |
| 2026-04-22 23:08 | 34.99359 | -118.91971 | 24314 ft | 404 kts | 323° |
| 2026-04-22 23:08 | 35.01808 | -118.93659 | 24672 ft | 405 kts | 322° |
| 2026-04-22 23:08 | 35.04263 | -118.95352 | 24982 ft | 406 kts | 322° |
| 2026-04-22 23:08 | 35.06693 | -118.97031 | 25332 ft | 407 kts | 322° |
| 2026-04-22 23:09 | 35.09160 | -118.98737 | 25678 ft | 409 kts | 322° |
| 2026-04-22 23:09 | 35.11638 | -119.00454 | 26020 ft | 410 kts | 322° |
| 2026-04-22 23:09 | 35.14126 | -119.02179 | 26315 ft | 413 kts | 322° |
| 2026-04-22 23:09 | 35.16630 | -119.03915 | 26618 ft | 414 kts | 322° |
| 2026-04-22 23:10 | 35.19140 | -119.05656 | 26923 ft | 416 kts | 322° |
| 2026-04-22 23:10 | 35.21656 | -119.07402 | 27228 ft | 416 kts | 322° |
| 2026-04-22 23:10 | 35.24176 | -119.09153 | 27502 ft | 417 kts | 322° |
| 2026-04-22 23:10 | 35.26674 | -119.10892 | 27761 ft | 419 kts | 322° |
| 2026-04-22 23:11 | 35.29211 | -119.12659 | 28030 ft | 421 kts | 322° |
| 2026-04-22 23:11 | 35.31761 | -119.14435 | 28301 ft | 423 kts | 322° |
| 2026-04-22 23:11 | 35.34321 | -119.16219 | 28548 ft | 424 kts | 322° |
| 2026-04-22 23:11 | 35.36893 | -119.18010 | 28784 ft | 426 kts | 322° |
| 2026-04-22 23:12 | 35.39476 | -119.19810 | 29118 ft | 426 kts | 322° |
| 2026-04-22 23:12 | 35.42059 | -119.21577 | 29492 ft | 427 kts | 325° |
| 2026-04-22 23:12 | 35.44838 | -119.22967 | 29838 ft | 437 kts | 333° |
| 2026-04-22 23:12 | 35.47803 | -119.23792 | 30153 ft | 449 kts | 343° |
| 2026-04-22 23:13 | 35.50938 | -119.24134 | 30428 ft | 453 kts | 346° |
| 2026-04-22 23:13 | 35.54080 | -119.24426 | 30698 ft | 453 kts | 346° |
| 2026-04-22 23:13 | 35.57215 | -119.24724 | 30988 ft | 451 kts | 345° |
| 2026-04-22 23:13 | 35.60340 | -119.25028 | 31336 ft | 450 kts | 345° |
| 2026-04-22 23:14 | 35.63457 | -119.25337 | 31654 ft | 448 kts | 345° |
| 2026-04-22 23:14 | 35.66557 | -119.25645 | 31969 ft | 447 kts | 344° |
| 2026-04-22 23:14 | 35.69649 | -119.25952 | 32265 ft | 445 kts | 344° |
| 2026-04-22 23:14 | 35.72695 | -119.26256 | 32554 ft | 444 kts | 344° |
| 2026-04-22 23:15 | 35.75773 | -119.26560 | 32850 ft | 443 kts | 344° |
| 2026-04-22 23:15 | 35.78843 | -119.26862 | 33155 ft | 442 kts | 344° |
| 2026-04-22 23:15 | 35.81906 | -119.27160 | 33518 ft | 441 kts | 343° |
| 2026-04-22 23:15 | 35.84957 | -119.27455 | 33838 ft | 439 kts | 343° |
| 2026-04-22 23:16 | 35.88002 | -119.27753 | 34110 ft | 438 kts | 343° |
| 2026-04-22 23:16 | 35.91032 | -119.28054 | 34181 ft | 436 kts | 343° |
| 2026-04-22 23:16 | 35.97051 | -119.28649 | 34187 ft | 433 kts | 343° |
| 2026-04-22 23:17 | 36.03059 | -119.29251 | 34184 ft | 433 kts | 343° |
| 2026-04-22 23:17 | 36.09057 | -119.29851 | 34179 ft | 433 kts | 343° |
| 2026-04-22 23:18 | 36.15062 | -119.30450 | 34185 ft | 433 kts | 343° |
| 2026-04-22 23:18 | 36.21069 | -119.31048 | 34186 ft | 433 kts | 343° |
| 2026-04-22 23:19 | 36.27076 | -119.31639 | 34202 ft | 433 kts | 343° |
| 2026-04-22 23:19 | 36.33041 | -119.32225 | 34197 ft | 433 kts | 343° |
| 2026-04-22 23:20 | 36.39041 | -119.32832 | 34193 ft | 433 kts | 343° |
| 2026-04-22 23:20 | 36.45043 | -119.33436 | 34211 ft | 432 kts | 343° |
| 2026-04-22 23:21 | 36.51023 | -119.34034 | 34192 ft | 431 kts | 342° |
| 2026-04-22 23:21 | 36.56996 | -119.34634 | 34195 ft | 431 kts | 342° |
| 2026-04-22 23:22 | 36.62967 | -119.35235 | 34190 ft | 431 kts | 342° |
| 2026-04-22 23:22 | 36.68944 | -119.35839 | 34219 ft | 431 kts | 342° |
| 2026-04-22 23:23 | 36.74919 | -119.36444 | 34209 ft | 431 kts | 342° |
| 2026-04-22 23:23 | 36.80893 | -119.37048 | 34207 ft | 431 kts | 342° |
| 2026-04-22 23:24 | 36.86864 | -119.37651 | 34188 ft | 430 kts | 342° |
| 2026-04-22 23:24 | 36.92827 | -119.38253 | 34191 ft | 430 kts | 342° |
| 2026-04-22 23:25 | 36.98800 | -119.38855 | 34198 ft | 431 kts | 342° |
| 2026-04-22 23:25 | 37.04777 | -119.39463 | 34202 ft | 431 kts | 342° |
| 2026-04-22 23:26 | 37.10736 | -119.40071 | 34223 ft | 429 kts | 342° |
| 2026-04-22 23:26 | 37.16643 | -119.40670 | 34221 ft | 428 kts | 342° |
| 2026-04-22 23:27 | 37.22579 | -119.41278 | 34214 ft | 428 kts | 342° |
| 2026-04-22 23:27 | 37.28513 | -119.41889 | 34244 ft | 428 kts | 342° |
| 2026-04-22 23:28 | 37.34444 | -119.42495 | 34230 ft | 427 kts | 342° |
| 2026-04-22 23:28 | 37.40363 | -119.43099 | 34224 ft | 426 kts | 342° |
| 2026-04-22 23:29 | 37.46283 | -119.43703 | 34218 ft | 427 kts | 342° |
| 2026-04-22 23:29 | 37.52198 | -119.44314 | 34215 ft | 426 kts | 342° |
| 2026-04-22 23:30 | 37.58115 | -119.44927 | 34201 ft | 427 kts | 342° |
| 2026-04-22 23:30 | 37.64024 | -119.45541 | 34201 ft | 427 kts | 342° |
| 2026-04-22 23:31 | 37.69961 | -119.46159 | 34229 ft | 428 kts | 343° |
| 2026-04-22 23:31 | 37.75907 | -119.46773 | 34219 ft | 429 kts | 343° |
| 2026-04-22 23:32 | 37.81820 | -119.47378 | 34196 ft | 429 kts | 343° |
| 2026-04-22 23:32 | 37.87772 | -119.47999 | 34214 ft | 428 kts | 343° |
| 2026-04-22 23:33 | 37.93735 | -119.48631 | 34215 ft | 431 kts | 344° |
| 2026-04-22 23:33 | 37.99717 | -119.49257 | 34217 ft | 432 kts | 344° |
| 2026-04-22 23:34 | 38.05708 | -119.49869 | 34201 ft | 432 kts | 344° |
| 2026-04-22 23:34 | 38.11700 | -119.50493 | 34221 ft | 432 kts | 345° |
| 2026-04-22 23:35 | 38.16684 | -119.51021 | 34205 ft | 432 kts | 344° |
| 2026-04-22 23:35 | 38.22681 | -119.51658 | 34191 ft | 433 kts | 345° |
| 2026-04-22 23:36 | 38.28688 | -119.52297 | 34210 ft | 433 kts | 345° |
| 2026-04-22 23:36 | 38.34692 | -119.52927 | 34194 ft | 433 kts | 345° |
| 2026-04-22 23:37 | 38.40691 | -119.53549 | 34177 ft | 432 kts | 345° |
| 2026-04-22 23:37 | 38.46661 | -119.54173 | 34136 ft | 427 kts | 344° |
| 2026-04-22 23:38 | 38.52615 | -119.54813 | 34133 ft | 431 kts | 345° |
| 2026-04-22 23:38 | 38.58600 | -119.55454 | 34136 ft | 432 kts | 345° |
| 2026-04-22 23:39 | 38.64587 | -119.56091 | 34129 ft | 432 kts | 345° |
| 2026-04-22 23:39 | 38.70578 | -119.56719 | 34118 ft | 430 kts | 346° |
| 2026-04-22 23:40 | 38.76545 | -119.57348 | 34119 ft | 431 kts | 346° |
| 2026-04-22 23:40 | 38.82537 | -119.57992 | 34137 ft | 432 kts | 346° |
| 2026-04-22 23:41 | 38.88527 | -119.58629 | 34148 ft | 431 kts | 345° |
| 2026-04-22 23:41 | 38.94514 | -119.59272 | 34161 ft | 432 kts | 345° |
| 2026-04-22 23:42 | 39.00465 | -119.59912 | 34165 ft | 432 kts | 346° |
| 2026-04-22 23:42 | 39.06459 | -119.60555 | 34207 ft | 432 kts | 346° |
| 2026-04-22 23:43 | 39.12455 | -119.61201 | 34220 ft | 432 kts | 346° |
| 2026-04-22 23:43 | 39.18451 | -119.61843 | 34220 ft | 433 kts | 346° |
| 2026-04-22 23:44 | 39.24447 | -119.62485 | 34201 ft | 433 kts | 346° |
| 2026-04-22 23:44 | 39.30447 | -119.63141 | 34197 ft | 433 kts | 346° |
| 2026-04-22 23:45 | 39.36453 | -119.63798 | 34179 ft | 433 kts | 346° |
| 2026-04-22 23:45 | 39.42460 | -119.64450 | 34194 ft | 433 kts | 346° |
| 2026-04-22 23:46 | 39.48471 | -119.65100 | 34220 ft | 434 kts | 347° |
| 2026-04-22 23:46 | 39.54552 | -119.65260 | 34195 ft | 446 kts | 359° |
| 2026-04-22 23:47 | 39.60678 | -119.63931 | 34176 ft | 450 kts | 2° |
| 2026-04-22 23:47 | 39.66856 | -119.62551 | 34178 ft | 451 kts | 2° |
| 2026-04-22 23:48 | 39.73040 | -119.61177 | 34163 ft | 451 kts | 2° |
| 2026-04-22 23:48 | 39.79253 | -119.59792 | 34152 ft | 451 kts | 2° |
| 2026-04-22 23:49 | 39.85441 | -119.58413 | 34137 ft | 451 kts | 2° |
| 2026-04-22 23:49 | 39.91622 | -119.57032 | 34144 ft | 450 kts | 3° |
| 2026-04-22 23:50 | 39.97796 | -119.55643 | 34132 ft | 450 kts | 3° |
| 2026-04-22 23:50 | 40.03963 | -119.54257 | 34127 ft | 450 kts | 3° |
| 2026-04-22 23:51 | 40.10128 | -119.52872 | 34121 ft | 449 kts | 4° |
| 2026-04-22 23:51 | 40.16291 | -119.51482 | 34110 ft | 450 kts | 4° |
| 2026-04-22 23:52 | 40.22466 | -119.50089 | 34109 ft | 450 kts | 4° |
| 2026-04-22 23:52 | 40.28597 | -119.48697 | 34125 ft | 450 kts | 5° |
| 2026-04-22 23:53 | 40.34765 | -119.47294 | 34121 ft | 450 kts | 5° |
| 2026-04-22 23:53 | 40.40939 | -119.45896 | 34115 ft | 450 kts | 5° |
| 2026-04-22 23:54 | 40.47115 | -119.44493 | 34115 ft | 450 kts | 5° |
| 2026-04-22 23:54 | 40.53288 | -119.43082 | 34129 ft | 450 kts | 6° |
| 2026-04-22 23:55 | 40.59451 | -119.41671 | 34134 ft | 449 kts | 6° |
| 2026-04-22 23:55 | 40.65607 | -119.40268 | 34135 ft | 449 kts | 6° |
| 2026-04-22 23:56 | 40.71756 | -119.38854 | 34149 ft | 448 kts | 6° |
| 2026-04-22 23:56 | 40.77887 | -119.37449 | 34141 ft | 446 kts | 6° |
| 2026-04-22 23:57 | 40.83998 | -119.36033 | 34131 ft | 446 kts | 6° |
| 2026-04-22 23:57 | 40.90103 | -119.34621 | 34128 ft | 445 kts | 6° |
| 2026-04-22 23:58 | 40.96203 | -119.33217 | 34128 ft | 445 kts | 6° |
| 2026-04-22 23:58 | 41.02296 | -119.31815 | 34124 ft | 444 kts | 6° |
| 2026-04-22 23:59 | 41.08389 | -119.30400 | 34125 ft | 444 kts | 6° |
| 2026-04-22 23:59 | 41.14475 | -119.28981 | 34138 ft | 444 kts | 7° |
| 2026-04-23 00:00 | 41.23582 | -119.26851 | 34134 ft | 443 kts | 7° |
| 2026-04-23 00:01 | 41.29644 | -119.25429 | 34137 ft | 442 kts | 7° |
| 2026-04-23 00:01 | 41.35688 | -119.24022 | 34148 ft | 440 kts | 7° |
| 2026-04-23 00:02 | 41.41715 | -119.22610 | 34140 ft | 439 kts | 7° |
| 2026-04-23 00:02 | 41.47722 | -119.21196 | 34142 ft | 438 kts | 7° |
| 2026-04-23 00:03 | 41.53713 | -119.19789 | 34148 ft | 436 kts | 7° |
| 2026-04-23 00:03 | 41.59686 | -119.18390 | 34141 ft | 435 kts | 7° |
| 2026-04-23 00:04 | 41.65637 | -119.16984 | 34134 ft | 434 kts | 7° |
| 2026-04-23 00:04 | 41.71545 | -119.15586 | 34137 ft | 433 kts | 8° |
| 2026-04-23 00:05 | 41.77475 | -119.14179 | 34144 ft | 431 kts | 8° |
| 2026-04-23 00:05 | 41.83379 | -119.12772 | 34137 ft | 431 kts | 8° |
| 2026-04-23 00:06 | 41.89277 | -119.11368 | 34128 ft | 431 kts | 8° |
| 2026-04-23 00:06 | 41.95171 | -119.09974 | 34127 ft | 430 kts | 9° |
| 2026-04-23 00:07 | 42.01046 | -119.08570 | 34145 ft | 428 kts | 9° |
| 2026-04-23 00:07 | 42.06901 | -119.07160 | 34126 ft | 427 kts | 9° |
| 2026-04-23 00:08 | 42.12750 | -119.05762 | 34128 ft | 426 kts | 10° |
| 2026-04-23 00:08 | 42.18582 | -119.04369 | 34128 ft | 425 kts | 10° |
| 2026-04-23 00:09 | 42.24407 | -119.02969 | 34125 ft | 425 kts | 10° |
| 2026-04-23 00:09 | 42.30221 | -119.01565 | 34134 ft | 424 kts | 11° |
| 2026-04-23 00:10 | 42.36027 | -119.00163 | 34140 ft | 423 kts | 12° |
| 2026-04-23 00:10 | 42.41766 | -118.98767 | 34140 ft | 421 kts | 12° |
| 2026-04-23 00:11 | 42.47519 | -118.97366 | 34148 ft | 419 kts | 11° |
| 2026-04-23 00:11 | 42.53258 | -118.95978 | 34136 ft | 419 kts | 11° |
| 2026-04-23 00:12 | 42.58987 | -118.94594 | 34144 ft | 417 kts | 12° |
| 2026-04-23 00:12 | 42.64698 | -118.93204 | 34142 ft | 416 kts | 12° |
| 2026-04-23 00:13 | 42.70384 | -118.91800 | 34142 ft | 415 kts | 12° |
| 2026-04-23 00:13 | 42.76064 | -118.90404 | 34140 ft | 414 kts | 12° |
| 2026-04-23 00:14 | 42.81719 | -118.89020 | 34145 ft | 412 kts | 13° |
| 2026-04-23 00:14 | 42.87352 | -118.87643 | 34145 ft | 410 kts | 13° |
| 2026-04-23 00:15 | 42.92960 | -118.86260 | 34140 ft | 409 kts | 12° |
| 2026-04-23 00:15 | 42.98562 | -118.84882 | 34133 ft | 408 kts | 13° |
| 2026-04-23 00:16 | 43.04150 | -118.83494 | 34121 ft | 408 kts | 13° |
| 2026-04-23 00:16 | 43.09737 | -118.82115 | 34117 ft | 408 kts | 12° |
| 2026-04-23 00:17 | 43.15327 | -118.80735 | 34103 ft | 408 kts | 13° |
| 2026-04-23 00:17 | 43.20906 | -118.79345 | 34095 ft | 408 kts | 13° |
| 2026-04-23 00:18 | 43.26445 | -118.77964 | 34096 ft | 407 kts | 13° |
| 2026-04-23 00:18 | 43.32018 | -118.76580 | 34091 ft | 407 kts | 13° |
| 2026-04-23 00:19 | 43.37587 | -118.75180 | 34082 ft | 406 kts | 15° |
| 2026-04-23 00:19 | 43.42924 | -118.72755 | 34067 ft | 404 kts | 21° |
| 2026-04-23 00:20 | 43.48231 | -118.70152 | 34067 ft | 405 kts | 21° |
| 2026-04-23 00:20 | 43.53553 | -118.67561 | 34062 ft | 406 kts | 21° |
| 2026-04-23 00:21 | 43.58881 | -118.64952 | 34061 ft | 407 kts | 21° |
| 2026-04-23 00:21 | 43.64216 | -118.62322 | 34067 ft | 407 kts | 21° |
| 2026-04-23 00:22 | 43.69556 | -118.59696 | 34046 ft | 409 kts | 21° |
| 2026-04-23 00:22 | 43.74926 | -118.57046 | 34051 ft | 410 kts | 21° |
| 2026-04-23 00:23 | 43.80303 | -118.54388 | 34053 ft | 411 kts | 21° |
| 2026-04-23 00:23 | 43.84780 | -118.52177 | 34051 ft | 411 kts | 21° |
| 2026-04-23 00:24 | 43.90164 | -118.49511 | 34033 ft | 411 kts | 21° |
| 2026-04-23 00:24 | 43.95561 | -118.46821 | 34038 ft | 413 kts | 21° |
| 2026-04-23 00:25 | 44.00972 | -118.44126 | 34042 ft | 414 kts | 21° |
| 2026-04-23 00:25 | 44.06396 | -118.41407 | 34058 ft | 414 kts | 21° |
| 2026-04-23 00:26 | 44.11822 | -118.38694 | 34040 ft | 415 kts | 21° |
| 2026-04-23 00:26 | 44.17257 | -118.35978 | 34046 ft | 415 kts | 21° |
| 2026-04-23 00:27 | 44.22693 | -118.33251 | 34034 ft | 416 kts | 21° |
| 2026-04-23 00:27 | 44.28102 | -118.30530 | 34048 ft | 416 kts | 21° |
| 2026-04-23 00:28 | 44.33542 | -118.27791 | 34042 ft | 416 kts | 21° |
| 2026-04-23 00:28 | 44.38979 | -118.25043 | 34040 ft | 415 kts | 21° |
| 2026-04-23 00:29 | 44.44414 | -118.22287 | 34039 ft | 416 kts | 21° |
| 2026-04-23 00:29 | 44.49855 | -118.19529 | 34036 ft | 416 kts | 21° |
| 2026-04-23 00:30 | 44.55301 | -118.16764 | 34038 ft | 416 kts | 21° |
| 2026-04-23 00:30 | 44.60746 | -118.13993 | 34046 ft | 416 kts | 21° |
| 2026-04-23 00:31 | 44.66182 | -118.11224 | 34029 ft | 415 kts | 21° |
| 2026-04-23 00:31 | 44.71612 | -118.08457 | 34025 ft | 414 kts | 21° |
| 2026-04-23 00:32 | 44.77023 | -118.05684 | 34020 ft | 414 kts | 21° |
| 2026-04-23 00:32 | 44.82437 | -118.02900 | 34017 ft | 414 kts | 21° |
| 2026-04-23 00:33 | 44.87865 | -118.00113 | 33993 ft | 416 kts | 21° |
| 2026-04-23 00:33 | 44.93283 | -117.97315 | 33978 ft | 418 kts | 21° |
| 2026-04-23 00:34 | 44.98763 | -117.94486 | 33981 ft | 420 kts | 21° |
| 2026-04-23 00:34 | 45.04266 | -117.91645 | 34013 ft | 421 kts | 21° |
| 2026-04-23 00:35 | 45.09770 | -117.88789 | 34026 ft | 421 kts | 21° |
| 2026-04-23 00:35 | 45.15254 | -117.85935 | 34038 ft | 419 kts | 20° |
| 2026-04-23 00:36 | 45.20727 | -117.83086 | 34043 ft | 418 kts | 20° |
| 2026-04-23 00:36 | 45.26189 | -117.80242 | 34042 ft | 418 kts | 20° |
| 2026-04-23 00:37 | 45.31651 | -117.77390 | 34034 ft | 418 kts | 20° |
| 2026-04-23 00:37 | 45.37106 | -117.74536 | 34037 ft | 418 kts | 20° |
| 2026-04-23 00:38 | 45.42556 | -117.71667 | 34032 ft | 417 kts | 20° |
| 2026-04-23 00:38 | 45.47999 | -117.68809 | 34027 ft | 417 kts | 20° |
| 2026-04-23 00:39 | 45.53446 | -117.65938 | 34019 ft | 417 kts | 20° |
| 2026-04-23 00:39 | 45.58891 | -117.63066 | 34020 ft | 417 kts | 20° |
| 2026-04-23 00:40 | 45.64304 | -117.60208 | 34009 ft | 418 kts | 20° |
| 2026-04-23 00:40 | 45.69790 | -117.57296 | 34007 ft | 418 kts | 20° |
| 2026-04-23 00:41 | 45.75241 | -117.54397 | 34003 ft | 418 kts | 20° |
| 2026-04-23 00:41 | 45.80665 | -117.51513 | 33999 ft | 419 kts | 20° |
| 2026-04-23 00:42 | 45.86119 | -117.48599 | 33987 ft | 418 kts | 20° |
| 2026-04-23 00:42 | 45.91579 | -117.45678 | 33977 ft | 419 kts | 20° |
| 2026-04-23 00:43 | 45.97046 | -117.42757 | 33953 ft | 419 kts | 20° |
| 2026-04-23 00:43 | 46.02520 | -117.39824 | 33960 ft | 420 kts | 20° |
| 2026-04-23 00:44 | 46.07990 | -117.36872 | 33951 ft | 420 kts | 20° |
| 2026-04-23 00:44 | 46.13467 | -117.33913 | 33938 ft | 420 kts | 20° |
| 2026-04-23 00:45 | 46.18937 | -117.30965 | 33939 ft | 419 kts | 20° |
| 2026-04-23 00:45 | 46.24392 | -117.28010 | 33921 ft | 419 kts | 20° |
| 2026-04-23 00:46 | 46.29855 | -117.25040 | 33904 ft | 420 kts | 20° |
| 2026-04-23 00:46 | 46.35322 | -117.22070 | 33895 ft | 420 kts | 19° |
| 2026-04-23 00:47 | 46.40799 | -117.19089 | 33877 ft | 420 kts | 19° |
| 2026-04-23 00:47 | 46.46267 | -117.16096 | 33882 ft | 420 kts | 20° |
| 2026-04-23 00:48 | 46.51742 | -117.13099 | 33884 ft | 421 kts | 19° |
| 2026-04-23 00:48 | 46.57228 | -117.10098 | 33871 ft | 422 kts | 20° |
| 2026-04-23 00:49 | 46.62730 | -117.07071 | 33870 ft | 423 kts | 20° |
| 2026-04-23 00:49 | 46.68249 | -117.04036 | 33866 ft | 424 kts | 20° |
| 2026-04-23 00:50 | 46.73730 | -117.01013 | 33881 ft | 424 kts | 20° |
| 2026-04-23 00:50 | 46.79235 | -116.97965 | 33895 ft | 423 kts | 20° |
| 2026-04-23 00:51 | 46.84729 | -116.94910 | 33895 ft | 422 kts | 20° |
| 2026-04-23 00:51 | 46.90221 | -116.91853 | 33903 ft | 422 kts | 20° |
| 2026-04-23 00:52 | 46.95705 | -116.88796 | 33897 ft | 422 kts | 20° |
| 2026-04-23 00:52 | 47.01193 | -116.85733 | 33905 ft | 422 kts | 20° |
| 2026-04-23 00:53 | 47.06682 | -116.82670 | 33904 ft | 422 kts | 20° |
| 2026-04-23 00:53 | 47.12176 | -116.79601 | 33923 ft | 422 kts | 20° |
| 2026-04-23 00:54 | 47.17658 | -116.76512 | 33914 ft | 422 kts | 20° |
| 2026-04-23 00:54 | 47.23144 | -116.73410 | 33909 ft | 422 kts | 20° |
| 2026-04-23 00:55 | 47.28639 | -116.70316 | 33895 ft | 423 kts | 20° |
| 2026-04-23 00:55 | 47.34142 | -116.67215 | 33903 ft | 424 kts | 20° |
| 2026-04-23 00:56 | 47.39652 | -116.64100 | 33904 ft | 424 kts | 20° |
| 2026-04-23 00:56 | 47.45160 | -116.60965 | 33895 ft | 425 kts | 20° |
| 2026-04-23 00:57 | 47.50675 | -116.57816 | 33872 ft | 425 kts | 20° |
| 2026-04-23 00:57 | 47.56163 | -116.54684 | 33861 ft | 426 kts | 20° |
| 2026-04-23 00:58 | 47.61710 | -116.51521 | 33852 ft | 427 kts | 20° |
| 2026-04-23 00:58 | 47.67258 | -116.48335 | 33853 ft | 428 kts | 20° |
| 2026-04-23 00:59 | 47.72822 | -116.45126 | 33847 ft | 429 kts | 21° |
| 2026-04-23 00:59 | 47.78396 | -116.41908 | 33839 ft | 431 kts | 20° |
| 2026-04-23 01:00 | 47.83995 | -116.38684 | 33849 ft | 433 kts | 20° |
| 2026-04-23 01:00 | 47.89625 | -116.35432 | 33849 ft | 434 kts | 20° |
| 2026-04-23 01:01 | 47.95259 | -116.32164 | 33847 ft | 435 kts | 21° |
| 2026-04-23 01:01 | 48.00912 | -116.28876 | 33825 ft | 437 kts | 21° |
| 2026-04-23 01:02 | 48.06582 | -116.25575 | 33818 ft | 438 kts | 21° |
| 2026-04-23 01:02 | 48.12270 | -116.22244 | 33818 ft | 439 kts | 21° |
| 2026-04-23 01:03 | 48.17964 | -116.18913 | 33820 ft | 440 kts | 21° |
| 2026-04-23 01:03 | 48.23662 | -116.15567 | 33817 ft | 440 kts | 21° |
| 2026-04-23 01:04 | 48.29368 | -116.12212 | 33822 ft | 440 kts | 21° |
| 2026-04-23 01:04 | 48.37933 | -116.07160 | 33793 ft | 442 kts | 20° |
| 2026-04-23 01:05 | 48.43664 | -116.03772 | 33775 ft | 443 kts | 20° |
| 2026-04-23 01:05 | 48.49391 | -116.00535 | 33775 ft | 442 kts | 13° |
| 2026-04-23 01:06 | 48.55436 | -115.99093 | 33767 ft | 440 kts | 5° |
| 2026-04-23 01:06 | 48.61544 | -115.98105 | 33772 ft | 445 kts | 5° |
| 2026-04-23 01:07 | 48.67750 | -115.97085 | 33770 ft | 450 kts | 4° |
| 2026-04-23 01:07 | 48.73978 | -115.96038 | 33763 ft | 450 kts | 5° |
| 2026-04-23 01:08 | 48.80206 | -115.95002 | 33753 ft | 451 kts | 4° |
| 2026-04-23 01:08 | 48.86455 | -115.93962 | 33749 ft | 452 kts | 5° |
| 2026-04-23 01:09 | 48.92717 | -115.92926 | 33725 ft | 452 kts | 5° |
| 2026-04-23 01:09 | 48.98969 | -115.91882 | 33723 ft | 452 kts | 5° |
| 2026-04-23 01:10 | 49.05217 | -115.90821 | 33729 ft | 452 kts | 5° |
| 2026-04-23 01:10 | 49.11477 | -115.89759 | 33700 ft | 453 kts | 4° |
| 2026-04-23 01:11 | 49.17715 | -115.88709 | 33688 ft | 455 kts | 4° |
| 2026-04-23 01:11 | 49.24007 | -115.87646 | 33689 ft | 455 kts | 4° |
| 2026-04-23 01:12 | 49.30308 | -115.86578 | 33677 ft | 456 kts | 5° |
| 2026-04-23 01:12 | 49.36483 | -115.84257 | 33672 ft | 461 kts | 21° |
| 2026-04-23 01:13 | 49.42170 | -115.79659 | 33669 ft | 464 kts | 28° |
| 2026-04-23 01:13 | 49.47811 | -115.74803 | 33675 ft | 465 kts | 28° |
| 2026-04-23 01:14 | 49.53463 | -115.69954 | 33679 ft | 466 kts | 28° |
| 2026-04-23 01:14 | 49.59117 | -115.65066 | 33682 ft | 466 kts | 28° |
| 2026-04-23 01:15 | 49.64766 | -115.60162 | 33688 ft | 467 kts | 28° |
| 2026-04-23 01:15 | 49.70443 | -115.55228 | 33674 ft | 469 kts | 28° |
| 2026-04-23 01:16 | 49.75178 | -115.51113 | 33685 ft | 471 kts | 28° |
| 2026-04-23 01:16 | 49.78043 | -115.48618 | 33570 ft | 473 kts | 28° |
| 2026-04-23 01:16 | 49.80911 | -115.46112 | 33284 ft | 474 kts | 28° |
| 2026-04-23 01:17 | 49.83793 | -115.43591 | 32361 ft | 481 kts | 28° |
| 2026-04-23 01:17 | 49.86724 | -115.41023 | 31413 ft | 487 kts | 28° |
| 2026-04-23 01:17 | 49.89683 | -115.38423 | 30497 ft | 491 kts | 28° |
| 2026-04-23 01:17 | 49.92666 | -115.35801 | 29806 ft | 491 kts | 28° |
| 2026-04-23 01:18 | 49.95626 | -115.33198 | 29144 ft | 488 kts | 28° |
| 2026-04-23 01:18 | 49.98568 | -115.30607 | 28508 ft | 484 kts | 28° |
| 2026-04-23 01:18 | 50.01484 | -115.28035 | 27877 ft | 480 kts | 28° |
| 2026-04-23 01:18 | 50.04377 | -115.25482 | 27259 ft | 476 kts | 28° |
| 2026-04-23 01:19 | 50.07252 | -115.22938 | 26665 ft | 473 kts | 28° |
| 2026-04-23 01:19 | 50.10101 | -115.20413 | 26051 ft | 470 kts | 27° |
| 2026-04-23 01:19 | 50.12931 | -115.17903 | 25462 ft | 467 kts | 27° |
| 2026-04-23 01:19 | 50.15738 | -115.15411 | 24894 ft | 462 kts | 27° |
| 2026-04-23 01:20 | 50.18485 | -115.12964 | 24374 ft | 458 kts | 27° |
| 2026-04-23 01:20 | 50.21280 | -115.10469 | 23802 ft | 455 kts | 27° |
| 2026-04-23 01:20 | 50.23977 | -115.08057 | 23279 ft | 451 kts | 27° |
| 2026-04-23 01:20 | 50.26724 | -115.05601 | 22733 ft | 447 kts | 27° |
| 2026-04-23 01:21 | 50.29367 | -115.03239 | 22283 ft | 440 kts | 27° |
| 2026-04-23 01:21 | 50.32004 | -115.00881 | 21807 ft | 433 kts | 26° |
| 2026-04-23 01:21 | 50.34603 | -114.98549 | 21365 ft | 426 kts | 26° |
| 2026-04-23 01:21 | 50.37153 | -114.96256 | 20932 ft | 419 kts | 26° |
| 2026-04-23 01:22 | 50.39662 | -114.93996 | 20525 ft | 413 kts | 26° |
| 2026-04-23 01:22 | 50.42137 | -114.91764 | 20078 ft | 408 kts | 26° |
| 2026-04-23 01:22 | 50.44586 | -114.89559 | 19644 ft | 403 kts | 26° |
| 2026-04-23 01:22 | 50.47002 | -114.87385 | 19200 ft | 398 kts | 26° |
| 2026-04-23 01:23 | 50.49393 | -114.85231 | 18795 ft | 394 kts | 26° |
| 2026-04-23 01:23 | 50.51764 | -114.83086 | 18331 ft | 392 kts | 26° |
| 2026-04-23 01:23 | 50.54122 | -114.80951 | 17851 ft | 390 kts | 26° |
| 2026-04-23 01:23 | 50.56466 | -114.78823 | 17392 ft | 387 kts | 26° |
| 2026-04-23 01:24 | 50.58758 | -114.76735 | 17242 ft | 375 kts | 25° |
| 2026-04-23 01:24 | 50.60974 | -114.74716 | 17110 ft | 362 kts | 25° |
| 2026-04-23 01:24 | 50.63119 | -114.72762 | 16889 ft | 348 kts | 25° |
| 2026-04-23 01:24 | 50.65187 | -114.70876 | 16165 ft | 340 kts | 25° |
| 2026-04-23 01:25 | 50.67218 | -114.69028 | 15463 ft | 333 kts | 25° |
| 2026-04-23 01:25 | 50.69193 | -114.67228 | 14986 ft | 319 kts | 25° |
| 2026-04-23 01:25 | 50.71020 | -114.65293 | 14687 ft | 318 kts | 36° |
| 2026-04-23 01:25 | 50.72616 | -114.62850 | 14304 ft | 320 kts | 41° |
| 2026-04-23 01:26 | 50.74164 | -114.60321 | 13918 ft | 321 kts | 42° |
| 2026-04-23 01:26 | 50.75715 | -114.57778 | 13500 ft | 321 kts | 42° |
| 2026-04-23 01:26 | 50.77264 | -114.55236 | 13100 ft | 320 kts | 41° |
| 2026-04-23 01:26 | 50.78801 | -114.52715 | 12731 ft | 316 kts | 42° |
| 2026-04-23 01:27 | 50.80304 | -114.50252 | 12315 ft | 315 kts | 41° |
| 2026-04-23 01:27 | 50.81811 | -114.47820 | 11915 ft | 305 kts | 40° |
| 2026-04-23 01:27 | 50.83325 | -114.45492 | 11512 ft | 301 kts | 40° |
| 2026-04-23 01:27 | 50.84829 | -114.43228 | 11227 ft | 296 kts | 38° |
| 2026-04-23 01:28 | 50.86321 | -114.40992 | 10855 ft | 294 kts | 39° |
| 2026-04-23 01:28 | 50.87794 | -114.38774 | 10526 ft | 290 kts | 38° |
| 2026-04-23 01:28 | 50.89227 | -114.36607 | 10271 ft | 275 kts | 39° |
| 2026-04-23 01:28 | 50.90504 | -114.34489 | 9909 ft | 262 kts | 50° |
| 2026-04-23 01:29 | 50.91337 | -114.31958 | 9390 ft | 258 kts | 66° |
| 2026-04-23 01:29 | 50.91629 | -114.29174 | 8779 ft | 258 kts | 85° |
| 2026-04-23 01:29 | 50.91557 | -114.26349 | 8455 ft | 254 kts | 87° |
| 2026-04-23 01:29 | 50.91478 | -114.23560 | 8268 ft | 253 kts | 85° |
| 2026-04-23 01:30 | 50.91404 | -114.20774 | 8057 ft | 253 kts | 85° |
| 2026-04-23 01:30 | 50.91331 | -114.18026 | 7807 ft | 245 kts | 86° |
| 2026-04-23 01:30 | 50.91265 | -114.15369 | 7589 ft | 238 kts | 83° |
| 2026-04-23 01:30 | 50.91242 | -114.12813 | 7367 ft | 223 kts | 81° |
| 2026-04-23 01:31 | 50.91237 | -114.10479 | 7173 ft | 203 kts | 82° |
| 2026-04-23 01:31 | 50.91239 | -114.08329 | 6986 ft | 188 kts | 81° |
| 2026-04-23 01:31 | 50.91260 | -114.06329 | 6793 ft | 175 kts | 74° |
| 2026-04-23 01:31 | 50.91611 | -114.04585 | 6632 ft | 161 kts | 52° |
| 2026-04-23 01:32 | 50.92291 | -114.03264 | 6493 ft | 150 kts | 32° |
| 2026-04-23 01:32 | 50.93165 | -114.02447 | 6353 ft | 143 kts | 15° |
| 2026-04-23 01:32 | 50.94129 | -114.02150 | 6214 ft | 141 kts | 360° |
| 2026-04-23 01:32 | 50.95104 | -114.02155 | 6075 ft | 139 kts | 359° |
| 2026-04-23 01:33 | 50.95995 | -114.02153 | 5956 ft | 139 kts | 359° |
| 2026-04-23 01:33 | 50.96946 | -114.02151 | 5804 ft | 139 kts | 358° |
| 2026-04-23 01:33 | 50.97911 | -114.02148 | 5677 ft | 138 kts | 358° |
| 2026-04-23 01:33 | 50.98870 | -114.02146 | 5538 ft | 138 kts | 359° |
| 2026-04-23 01:34 | 50.99827 | -114.02143 | 5409 ft | 137 kts | 359° |
| 2026-04-23 01:34 | 51.00785 | -114.02142 | 5268 ft | 137 kts | 358° |
| 2026-04-23 01:34 | 51.01735 | -114.02142 | 5127 ft | 137 kts | 359° |
| 2026-04-23 01:34 | 51.02676 | -114.02142 | 4939 ft | 136 kts | 359° |
| 2026-04-23 01:35 | 51.03626 | -114.02141 | 4752 ft | 136 kts | 358° |
| 2026-04-23 01:35 | 51.04574 | -114.02140 | 4559 ft | 137 kts | 358° |
| 2026-04-23 01:35 | 51.05526 | -114.02139 | 4364 ft | 137 kts | 359° |
| 2026-04-23 01:35 | 51.06473 | -114.02145 | 4212 ft | 136 kts | 359° |
| 2026-04-23 01:36 | 51.07432 | -114.02144 | 4091 ft | 139 kts | 0° |
| 2026-04-23 01:36 | 51.08393 | -114.02157 | 3918 ft | 137 kts | 0° |
| 2026-04-23 01:36 | 51.09340 | -114.02135 | 3720 ft | 136 kts | 1° |
| 2026-04-23 01:36 | 51.10283 | -114.02139 | 3562 ft | 133 kts | 0° |
| 2026-04-23 01:37 | 51.11094 | -114.02134 | 3559 ft | 105 kts | 2° |
| 2026-04-23 01:37 | 51.11701 | -114.02136 | 3557 ft | 63 kts | 360° |
| 2026-04-23 01:37 | 51.11965 | -114.02137 | 3560 ft | 19 kts | 0° |
| 2026-04-23 01:37 | 51.12053 | -114.02136 | 3562 ft | 31 kts | 0° |
| 2026-04-23 01:38 | 51.12299 | -114.02076 | 3556 ft | 33 kts | 28° |
| 2026-04-23 01:38 | 51.12451 | -114.01930 | 3559 ft | 26 kts | 28° |
| 2026-04-23 01:38 | 51.12592 | -114.01770 | 3559 ft | 20 kts | 64° |
| 2026-04-23 01:38 | 51.12602 | -114.01560 | 3559 ft | 19 kts | 90° |
| 2026-04-23 01:39 | 51.12640 | -114.01403 | 3559 ft | 17 kts | 41° |
| 2026-04-23 01:39 | 51.12729 | -114.01282 | 3555 ft | 17 kts | 41° |
| 2026-04-23 01:39 | 51.12701 | -114.01322 | 3556 ft | 4 kts | 38° |
| 2026-04-23 01:39 | 51.12768 | -114.01298 | 3558 ft | 10 kts | 334° |
| 2026-04-23 01:40 | 51.12834 | -114.01292 | 3559 ft | 11 kts | 18° |
| 2026-04-23 01:40 | 51.12880 | -114.01267 | 3558 ft | 4 kts | 18° |
| 2026-04-23 01:40 | 51.12884 | -114.01265 | 3559 ft | 0 kts | 18° |